Terminal Aerodrome Forecast
Issued by NWS Charleston, WV

Current Version | Previous Version | Graphics & Text | Print | Product List | Glossary On
Versions: 1 2 3 4 5 6 7 8 9 10 11 12 13 14 15 16 17 18 19 20 21 22 23 24 25 26
000
FTUS41 KRLX 291400 AAA
TAFHTS
TAF AMD
KHTS 291443Z 2915/3012 18009G18KT P6SM -RA OVC040
     FM291700 20009KT P6SM BKN050
     FM292100 27009G18KT P6SM OVC025
     FM300000 28009G18KT P6SM -RA OVC018
     FM300500 28011G20KT 5SM -SN OVC014=

USA.gov is the U.S. government's official web portal to all federal, state and local government web resources and services.